Terminal Aerodrome Forecast
Issued by NWS

Home | Current Version | Previous Version | Text Only | Print | Product List | Glossary On
Versions: 1 2 3 4 5 6 7 8 9 10 11 12 13
000
FTUS43 KABR 300527
TAFPIR
TAF
KPIR 300527Z 3006/0106 12006KT P6SM BKN200
     FM300900 08009KT P6SM VCTS SCT080CB BKN250
     FM301400 12012G19KT P6SM BKN250
     FM010200 10008KT P6SM OVC100=

USA.gov is the U.S. government's official web portal to all federal, state and local government web resources and services.